createdAt,value
2023-02-06T00:01:37.572Z,8.90
2023-02-06T00:04:05.343Z,5.60
2023-02-06T00:06:33.449Z,7.73
2023-02-06T00:09:01.448Z,7.05
2023-02-06T00:11:29.281Z,8.38
2023-02-06T00:13:56.724Z,7.03
2023-02-06T00:16:31.124Z,5.63
2023-02-06T00:18:59.656Z,7.07
2023-02-06T00:21:29.801Z,6.63
2023-02-06T00:24:00.724Z,5.75
2023-02-06T00:26:28.954Z,6.00
2023-02-06T00:28:56.448Z,7.55
2023-02-06T00:31:25.502Z,7.22
2023-02-06T00:33:52.954Z,6.63
2023-02-06T00:36:20.314Z,6.95
2023-02-06T00:38:48.054Z,6.45
2023-02-06T00:41:15.536Z,7.30
2023-02-06T00:43:43.667Z,6.90
2023-02-06T00:46:11.363Z,6.70
2023-02-06T00:48:38.779Z,6.20
2023-02-06T00:51:06.472Z,8.13
2023-02-06T00:53:33.939Z,7.38
2023-02-06T00:56:01.340Z,6.63
2023-02-06T00:58:28.712Z,6.55
2023-02-06T01:00:56.222Z,6.53
2023-02-06T01:03:24.292Z,6.78
2023-02-06T01:05:51.662Z,6.00
2023-02-06T01:08:19.054Z,5.93
2023-02-06T01:10:46.641Z,6.57
2023-02-06T01:13:14.388Z,6.17
2023-02-06T01:15:41.926Z,6.50
2023-02-06T01:18:10.417Z,6.47
2023-02-06T01:20:41.196Z,6.65
2023-02-06T01:23:08.679Z,6.15
2023-02-06T01:25:37.326Z,6.13
2023-02-06T01:28:05.148Z,6.70
2023-02-06T01:30:32.684Z,5.30
2023-02-06T01:33:00.123Z,6.57
2023-02-06T01:35:29.609Z,5.95
2023-02-06T01:37:57.036Z,6.75
2023-02-06T01:40:24.493Z,5.57
2023-02-06T01:42:51.963Z,6.25
2023-02-06T01:45:53.019Z,6.50
2023-02-06T01:48:35.749Z,5.78
2023-02-06T01:51:07.066Z,6.32
2023-02-06T01:53:35.936Z,6.25
2023-02-06T01:56:06.734Z,6.32
2023-02-06T01:58:42.340Z,7.22
2023-02-06T02:01:11.390Z,6.93
2023-02-06T02:03:45.502Z,6.88
2023-02-06T02:06:21.132Z,5.45
2023-02-06T02:08:54.276Z,7.15
2023-02-06T02:11:35.623Z,6.25
2023-02-06T02:14:07.319Z,6.38
2023-02-06T02:17:00.310Z,6.03
2023-02-06T02:19:58.524Z,6.63
2023-02-06T02:22:34.862Z,5.40
2023-02-06T02:25:05.176Z,4.95
2023-02-06T02:28:01.738Z,6.25
2023-02-06T02:30:50.608Z,5.90
2023-02-06T02:33:45.179Z,6.30
2023-02-06T02:36:46.148Z,6.32
2023-02-06T02:39:20.193Z,6.22
2023-02-06T02:42:13.925Z,6.15
2023-02-06T02:44:52.771Z,5.43
2023-02-06T02:47:30.346Z,6.65
2023-02-06T02:50:01.892Z,5.88
2023-02-06T02:52:29.388Z,5.97
2023-02-06T02:54:56.804Z,6.28
2023-02-06T02:57:31.191Z,8.63
2023-02-06T03:00:01.599Z,12.20
2023-02-06T03:02:38.010Z,18.35
2023-02-06T03:05:13.538Z,14.73
2023-02-06T03:07:47.188Z,18.83
2023-02-06T03:11:00.844Z,20.33
2023-02-06T03:13:36.954Z,13.27
2023-02-06T03:16:23.676Z,15.68
2023-02-06T03:19:05.276Z,13.90
2023-02-06T03:21:36.719Z,12.88
2023-02-06T03:24:12.759Z,12.52
2023-02-06T03:26:42.942Z,12.60
2023-02-06T03:29:15.218Z,11.25
2023-02-06T03:31:52.563Z,10.05
2023-02-06T03:34:38.383Z,10.30
2023-02-06T03:37:05.885Z,10.60
2023-02-06T03:39:34.332Z,11.10
2023-02-06T03:42:04.970Z,8.75
2023-02-06T03:44:39.814Z,9.30
2023-02-06T03:47:10.451Z,8.45
2023-02-06T03:49:41.950Z,9.95
2023-02-06T03:52:13.870Z,10.85
2023-02-06T03:54:49.401Z,9.40
2023-02-06T03:57:19.741Z,10.13
2023-02-06T03:59:48.048Z,10.45
2023-02-06T04:02:18.020Z,10.43
2023-02-06T04:04:46.142Z,10.20
2023-02-06T04:07:30.333Z,8.38
2023-02-06T04:09:57.770Z,8.50
2023-02-06T04:12:25.742Z,8.20
2023-02-06T04:14:53.373Z,8.63
2023-02-06T04:17:38.428Z,9.88
2023-02-06T04:20:09.375Z,6.95
2023-02-06T04:25:04.122Z,8.10
2023-02-06T04:27:31.580Z,9.20
2023-02-06T04:29:59.113Z,9.00
2023-02-06T04:32:26.446Z,9.15
2023-02-06T04:34:53.847Z,10.20
2023-02-06T04:37:21.184Z,7.70
2023-02-06T04:39:48.684Z,12.93
2023-02-06T04:42:16.189Z,9.97
2023-02-06T04:44:43.489Z,9.88
2023-02-06T04:47:11.095Z,10.27
2023-02-06T04:49:38.465Z,13.18
2023-02-06T04:52:06.070Z,10.73
2023-02-06T04:54:33.428Z,10.85
2023-02-06T04:57:00.862Z,10.43
2023-02-06T04:59:28.450Z,10.73
2023-02-06T05:01:55.815Z,9.52
2023-02-06T05:04:23.124Z,10.30
2023-02-06T05:06:50.482Z,10.27
2023-02-06T05:09:18.009Z,8.45
2023-02-06T05:11:45.434Z,8.90
2023-02-06T05:14:12.939Z,8.18
2023-02-06T05:16:40.343Z,9.57
2023-02-06T05:19:07.817Z,8.95
2023-02-06T05:21:35.174Z,8.98
2023-02-06T05:24:02.570Z,9.57
2023-02-06T05:26:30.195Z,10.77
2023-02-06T05:28:57.694Z,9.27
2023-02-06T05:31:25.116Z,10.23
2023-02-06T05:33:52.950Z,15.90
2023-02-06T05:36:22.283Z,9.00
2023-02-06T05:38:50.250Z,9.38
2023-02-06T05:41:18.420Z,9.15
2023-02-06T05:43:46.244Z,9.27
2023-02-06T05:46:13.985Z,9.50
2023-02-06T05:48:41.539Z,8.88
2023-02-06T05:51:08.991Z,7.35
2023-02-06T05:53:36.424Z,9.32
2023-02-06T05:56:04.141Z,10.15
2023-02-06T05:58:31.867Z,9.25
2023-02-06T06:00:59.318Z,9.25
2023-02-06T06:03:26.852Z,11.88
2023-02-06T06:05:54.833Z,11.77
2023-02-06T06:08:22.860Z,13.20
2023-02-06T06:10:52.429Z,14.00
2023-02-06T06:13:19.845Z,11.00
2023-02-06T06:15:53.885Z,9.13
2023-02-06T06:18:21.819Z,8.68
2023-02-06T06:20:49.427Z,9.88
2023-02-06T06:23:16.979Z,9.35
2023-02-06T06:25:46.701Z,10.15
2023-02-06T06:28:14.443Z,10.73
2023-02-06T06:30:42.000Z,10.67
2023-02-06T06:33:09.456Z,8.13
2023-02-06T06:35:37.518Z,10.18
2023-02-06T06:38:05.176Z,8.57
2023-02-06T06:40:32.568Z,9.40
2023-02-06T06:42:59.998Z,10.73
2023-02-06T06:45:27.393Z,9.95
2023-02-06T06:47:54.803Z,9.25
2023-02-06T06:50:22.236Z,10.98
2023-02-06T06:52:49.707Z,13.00
2023-02-06T06:55:19.488Z,13.38
2023-02-06T06:57:47.634Z,14.05
2023-02-06T07:00:15.974Z,14.02
2023-02-06T07:02:43.908Z,12.02
2023-02-06T07:05:11.833Z,9.18
2023-02-06T07:07:39.520Z,10.82
2023-02-06T07:10:09.284Z,7.90
2023-02-06T07:12:36.738Z,8.85
2023-02-06T07:15:05.638Z,9.20
2023-02-06T07:17:33.382Z,11.80
2023-02-06T07:20:00.794Z,9.77
2023-02-06T07:22:28.291Z,13.50
2023-02-06T07:24:55.722Z,9.50
2023-02-06T07:27:23.137Z,12.20
2023-02-06T07:29:50.519Z,9.15
2023-02-06T07:32:17.878Z,9.38
2023-02-06T07:34:45.305Z,12.00
2023-02-06T07:37:12.778Z,11.70
2023-02-06T07:39:40.214Z,9.02
2023-02-06T07:42:08.190Z,8.60
2023-02-06T07:44:50.899Z,7.75
2023-02-06T07:47:18.299Z,10.18
2023-02-06T07:49:45.600Z,7.47
2023-02-06T07:52:13.212Z,8.98
2023-02-06T07:54:40.565Z,7.57
2023-02-06T07:57:08.036Z,10.52
2023-02-06T07:59:35.389Z,7.28
2023-02-06T08:02:02.711Z,9.68
2023-02-06T08:04:35.221Z,8.98
2023-02-06T08:07:04.839Z,8.80
2023-02-06T08:09:33.152Z,7.20
2023-02-06T08:12:00.625Z,10.32
2023-02-06T08:14:28.606Z,8.95
2023-02-06T08:16:56.062Z,8.18
2023-02-06T08:19:23.764Z,8.70
2023-02-06T08:21:51.577Z,10.43
2023-02-06T08:24:19.015Z,9.43
2023-02-06T08:26:46.391Z,9.38
2023-02-06T08:29:14.454Z,9.43
2023-02-06T08:31:43.268Z,9.02
2023-02-06T08:34:14.696Z,10.23
2023-02-06T08:36:43.738Z,7.18
2023-02-06T08:39:14.468Z,6.95
2023-02-06T08:41:44.013Z,10.40
2023-02-06T08:44:16.279Z,8.07
2023-02-06T08:46:46.275Z,9.82
2023-02-06T08:49:17.368Z,8.13
2023-02-06T08:51:45.922Z,13.15
2023-02-06T08:54:20.742Z,12.30
2023-02-06T08:56:49.844Z,8.30
2023-02-06T08:59:19.716Z,7.30
2023-02-06T09:01:49.141Z,7.85
2023-02-06T09:04:17.525Z,6.78
2023-02-06T09:06:48.953Z,8.02
2023-02-06T09:09:16.748Z,9.10
2023-02-06T09:11:44.767Z,8.40
2023-02-06T09:14:16.609Z,7.13
2023-02-06T09:16:44.528Z,9.70
2023-02-06T09:19:12.656Z,11.07
2023-02-06T09:21:40.225Z,8.38
2023-02-06T09:24:09.882Z,9.10
2023-02-06T09:26:57.340Z,7.72
2023-02-06T09:29:31.773Z,9.10
2023-02-06T09:32:00.591Z,13.23
2023-02-06T09:36:56.814Z,10.13
2023-02-06T09:42:06.008Z,8.23
2023-02-06T09:44:48.977Z,14.38
2023-02-06T09:47:34.333Z,12.93
2023-02-06T09:50:12.784Z,19.98
2023-02-06T09:55:45.361Z,11.63
2023-02-06T09:58:57.801Z,7.53
2023-02-06T10:02:07.723Z,8.73
2023-02-06T10:04:44.248Z,10.88
2023-02-06T10:07:48.680Z,6.50
2023-02-06T10:10:43.452Z,7.78
2023-02-06T10:13:57.264Z,8.45
2023-02-06T10:16:32.507Z,14.20
2023-02-06T10:19:09.278Z,13.77
2023-02-06T10:21:50.307Z,10.57
2023-02-06T10:24:40.028Z,10.38
2023-02-06T10:27:14.027Z,7.85
2023-02-06T10:29:46.491Z,11.68
2023-02-06T10:32:29.068Z,8.88
2023-02-06T10:35:23.864Z,13.48
2023-02-06T10:38:22.792Z,9.73
2023-02-06T10:41:21.817Z,18.13
2023-02-06T10:44:03.817Z,16.45
2023-02-06T10:46:46.134Z,9.85
2023-02-06T10:49:46.430Z,13.40
2023-02-06T10:52:30.015Z,11.38
2023-02-06T10:55:03.755Z,12.45
2023-02-06T10:57:32.036Z,10.95
2023-02-06T11:00:04.373Z,12.02
2023-02-06T11:03:06.646Z,15.95
2023-02-06T11:05:35.821Z,13.38
2023-02-06T11:08:29.795Z,14.80
2023-02-06T11:10:58.240Z,14.27
2023-02-06T11:13:34.292Z,10.95
2023-02-06T11:16:08.923Z,11.98
2023-02-06T11:18:42.326Z,14.75
2023-02-06T11:21:13.134Z,13.48
2023-02-06T11:23:42.232Z,12.80
2023-02-06T11:26:19.891Z,10.60
2023-02-06T11:29:09.406Z,11.20
2023-02-06T11:31:46.071Z,12.75
2023-02-06T11:34:49.482Z,11.13
2023-02-06T11:37:40.412Z,12.57
2023-02-06T11:40:19.963Z,13.27
2023-02-06T11:43:08.152Z,16.52
2023-02-06T11:45:35.837Z,12.85
2023-02-06T11:48:03.706Z,12.75
2023-02-06T11:50:35.520Z,13.37
2023-02-06T11:53:16.800Z,10.43
2023-02-06T11:55:57.503Z,10.75
2023-02-06T11:58:29.876Z,11.45
2023-02-06T12:01:06.722Z,11.68
2023-02-06T12:03:58.023Z,12.43
2023-02-06T12:06:30.570Z,18.65
2023-02-06T12:09:02.416Z,22.35
2023-02-06T12:11:50.356Z,14.43
2023-02-06T12:14:41.775Z,21.15
2023-02-06T12:17:39.859Z,13.82
2023-02-06T12:20:20.581Z,14.35
2023-02-06T12:22:56.166Z,13.73
2023-02-06T12:25:34.884Z,13.98
2023-02-06T12:28:34.037Z,10.85
2023-02-06T12:31:10.524Z,11.68
2023-02-06T12:33:48.361Z,14.05
2023-02-06T12:36:33.139Z,16.15
2023-02-06T12:39:23.339Z,13.80
2023-02-06T12:42:21.383Z,19.55
2023-02-06T12:45:34.150Z,15.52
2023-02-06T12:48:15.940Z,11.85
2023-02-06T12:51:11.499Z,10.30
2023-02-06T12:53:44.910Z,7.18
2023-02-06T12:56:47.833Z,7.57
2023-02-06T12:59:58.191Z,8.23
2023-02-06T13:03:29.863Z,7.70
2023-02-06T13:06:23.572Z,7.00
2023-02-06T13:08:59.730Z,11.95
2023-02-06T13:11:39.173Z,8.75
2023-02-06T13:14:17.696Z,7.53
2023-02-06T13:20:22.933Z,7.57
2023-02-06T13:23:12.108Z,9.77
2023-02-06T13:25:39.433Z,8.15
2023-02-06T13:28:21.996Z,7.18
2023-02-06T13:31:02.233Z,9.45
2023-02-06T13:33:56.438Z,8.50
2023-02-06T13:36:44.326Z,13.20
2023-02-06T13:39:28.970Z,12.18
2023-02-06T13:42:01.056Z,9.98
2023-02-06T13:44:33.788Z,10.50
2023-02-06T13:47:24.131Z,9.23
2023-02-06T13:50:24.685Z,9.80
2023-02-06T13:53:18.828Z,9.48
2023-02-06T13:56:09.647Z,11.15
2023-02-06T13:58:55.337Z,7.43
2023-02-06T14:01:29.922Z,8.52
2023-02-06T14:03:59.269Z,8.90
2023-02-06T14:06:40.080Z,8.32
2023-02-06T14:09:43.965Z,7.70
2023-02-06T14:12:35.644Z,10.95
2023-02-06T14:15:21.224Z,14.48
2023-02-06T14:18:27.001Z,7.75
2023-02-06T14:21:10.270Z,8.63
2023-02-06T14:23:58.715Z,8.02
2023-02-06T14:29:27.162Z,8.73
2023-02-06T14:32:30.307Z,9.13
2023-02-06T14:35:12.751Z,10.10
2023-02-06T14:38:25.926Z,10.02
2023-02-06T14:40:57.070Z,13.23
2023-02-06T14:43:32.087Z,16.08
2023-02-06T14:46:08.107Z,12.13
2023-02-06T14:48:52.725Z,11.15
2023-02-06T14:51:35.363Z,12.68
2023-02-06T14:54:06.770Z,11.75
2023-02-06T14:56:37.646Z,17.67
2023-02-06T14:59:13.903Z,14.65
2023-02-06T15:01:47.322Z,14.55
2023-02-06T15:04:30.386Z,12.48
2023-02-06T15:07:02.002Z,14.95
2023-02-06T15:09:40.428Z,18.40
2023-02-06T15:15:23.434Z,13.13
2023-02-06T15:18:07.645Z,22.17
2023-02-06T15:20:44.092Z,18.90
2023-02-06T15:23:51.828Z,15.90
2023-02-06T15:26:50.206Z,15.32
2023-02-06T15:31:53.059Z,18.30
2023-02-06T15:34:24.972Z,25.02
2023-02-06T15:36:52.927Z,27.48
2023-02-06T15:39:21.239Z,35.05
2023-02-06T15:41:51.962Z,24.10
2023-02-06T15:44:22.473Z,22.80
2023-02-06T15:46:51.454Z,27.27
2023-02-06T15:49:31.687Z,16.60
2023-02-06T15:51:59.075Z,28.65
2023-02-06T15:54:29.102Z,29.98
2023-02-06T15:57:02.827Z,25.88
2023-02-06T15:59:36.154Z,24.15
2023-02-06T16:02:04.808Z,24.38
2023-02-06T16:07:27.582Z,24.40
2023-02-06T16:10:28.666Z,21.70
2023-02-06T16:13:00.182Z,15.48
2023-02-06T16:15:37.857Z,13.63
2023-02-06T16:18:33.448Z,14.57
2023-02-06T16:21:15.743Z,15.90
2023-02-06T16:24:03.970Z,13.65
2023-02-06T16:26:52.146Z,15.48
2023-02-06T16:29:26.928Z,14.25
2023-02-06T16:32:03.244Z,15.63
2023-02-06T16:34:36.884Z,18.15
2023-02-06T16:37:12.000Z,19.48
2023-02-06T16:39:44.150Z,22.70
2023-02-06T16:42:35.224Z,18.25
2023-02-06T16:45:17.461Z,16.58
2023-02-06T16:47:45.577Z,21.58
2023-02-06T16:50:13.646Z,21.90
2023-02-06T16:52:51.375Z,31.70
2023-02-06T16:55:23.613Z,35.22
2023-02-06T16:57:56.832Z,20.20
2023-02-06T17:00:31.715Z,19.58
2023-02-06T17:02:59.830Z,21.90
2023-02-06T17:05:29.454Z,25.08
2023-02-06T17:07:57.007Z,33.15
2023-02-06T17:10:26.733Z,28.77
2023-02-06T17:12:54.328Z,23.88
2023-02-06T17:15:21.802Z,21.25
2023-02-06T17:17:49.334Z,13.13
2023-02-06T17:20:37.157Z,11.23
2023-02-06T17:23:05.692Z,17.77
2023-02-06T17:25:33.664Z,17.17
2023-02-06T17:28:01.474Z,13.70
2023-02-06T17:30:29.015Z,11.20
2023-02-06T17:32:56.503Z,14.52
2023-02-06T17:35:24.046Z,14.05
2023-02-06T17:37:51.757Z,13.30
2023-02-06T17:40:28.097Z,16.87
2023-02-06T17:42:57.653Z,16.52
2023-02-06T17:45:26.272Z,15.27
2023-02-06T17:47:54.088Z,13.43
2023-02-06T17:50:27.447Z,13.40
2023-02-06T17:52:56.136Z,15.27
2023-02-06T17:55:25.741Z,18.13
2023-02-06T17:57:54.483Z,20.33
2023-02-06T18:00:23.773Z,18.52
2023-02-06T18:02:53.712Z,17.58
2023-02-06T18:05:22.905Z,14.38
2023-02-06T18:07:51.891Z,16.13
2023-02-06T18:10:22.532Z,16.83
2023-02-06T18:12:50.595Z,15.88
2023-02-06T18:15:18.050Z,15.63
2023-02-06T18:17:45.505Z,15.68
2023-02-06T18:20:13.977Z,14.30
2023-02-06T18:22:41.619Z,11.30
2023-02-06T18:25:13.696Z,11.52
2023-02-06T18:27:42.862Z,12.50
2023-02-06T18:30:11.819Z,12.10
2023-02-06T18:32:39.609Z,11.60
2023-02-06T18:35:08.712Z,11.60
2023-02-06T18:37:36.480Z,11.10
2023-02-06T18:40:04.693Z,11.38
2023-02-06T18:42:50.813Z,12.00
2023-02-06T18:45:19.846Z,12.25
2023-02-06T18:47:47.959Z,11.88
2023-02-06T18:50:15.651Z,11.70
2023-02-06T18:52:43.226Z,11.90
2023-02-06T18:55:10.871Z,11.55
2023-02-06T18:57:38.384Z,11.93
2023-02-06T19:00:07.812Z,13.32
2023-02-06T19:02:35.459Z,13.82
2023-02-06T19:05:02.880Z,14.15
2023-02-06T19:07:30.437Z,12.77
2023-02-06T19:10:04.262Z,12.37
2023-02-06T19:12:31.918Z,12.77
2023-02-06T19:14:59.841Z,13.30
2023-02-06T19:17:28.338Z,14.88
2023-02-06T19:19:55.872Z,12.52
2023-02-06T19:22:23.992Z,12.50
2023-02-06T19:24:53.267Z,12.90
2023-02-06T19:27:21.877Z,12.45
2023-02-06T19:29:49.629Z,14.10
2023-02-06T19:32:17.171Z,12.57
2023-02-06T19:34:45.316Z,13.15
2023-02-06T19:37:13.473Z,12.90
2023-02-06T19:39:43.135Z,10.30
2023-02-06T19:42:15.616Z,10.70
2023-02-06T19:44:43.862Z,11.23
2023-02-06T19:47:11.352Z,11.98
2023-02-06T19:49:38.940Z,12.10
2023-02-06T19:52:06.576Z,13.07
2023-02-06T19:54:34.002Z,13.90
2023-02-06T19:57:01.475Z,15.13
2023-02-06T19:59:29.943Z,15.13
2023-02-06T20:02:01.193Z,15.35
2023-02-06T20:04:36.010Z,17.63
2023-02-06T20:07:03.783Z,15.93
2023-02-06T20:09:31.904Z,16.90
2023-02-06T20:11:59.465Z,17.30
2023-02-06T20:14:29.104Z,16.15
2023-02-06T20:16:56.623Z,13.88
2023-02-06T20:19:28.263Z,12.23
2023-02-06T20:21:59.689Z,14.23
2023-02-06T20:24:31.304Z,15.40
2023-02-06T20:27:05.776Z,15.23
2023-02-06T20:29:37.851Z,12.65
2023-02-06T20:32:07.347Z,13.82
2023-02-06T20:34:35.731Z,14.38
2023-02-06T20:37:04.066Z,20.75
2023-02-06T20:39:32.091Z,26.27
2023-02-06T20:41:59.722Z,22.92
2023-02-06T20:44:27.446Z,25.90
2023-02-06T20:46:54.837Z,25.38
2023-02-06T20:49:26.554Z,29.02
2023-02-06T20:51:54.791Z,32.03
2023-02-06T20:54:23.720Z,32.40
2023-02-06T20:56:51.426Z,24.98
2023-02-06T20:59:20.697Z,19.67
2023-02-06T21:01:48.659Z,20.10
2023-02-06T21:04:17.935Z,19.38
2023-02-06T21:06:47.888Z,20.98
2023-02-06T21:09:15.860Z,23.63
2023-02-06T21:11:48.023Z,24.20
2023-02-06T21:14:16.202Z,20.48
2023-02-06T21:16:44.356Z,24.30
2023-02-06T21:19:15.807Z,24.15
2023-02-06T21:21:45.959Z,27.63
2023-02-06T21:24:14.792Z,24.17
2023-02-06T21:26:43.428Z,24.40
2023-02-06T21:29:15.009Z,20.08
2023-02-06T21:31:43.208Z,17.65
2023-02-06T21:34:19.067Z,17.02
2023-02-06T21:36:46.569Z,15.32
2023-02-06T21:39:27.023Z,19.77
2023-02-06T21:41:55.112Z,19.48
2023-02-06T21:44:24.770Z,18.48
2023-02-06T21:46:53.330Z,17.98
2023-02-06T21:49:21.166Z,16.23
2023-02-06T21:51:50.330Z,18.75
2023-02-06T21:54:18.273Z,19.67
2023-02-06T21:56:45.637Z,17.02
2023-02-06T21:59:13.370Z,16.77
2023-02-06T22:01:41.220Z,16.00
2023-02-06T22:04:11.194Z,20.20
2023-02-06T22:06:39.527Z,17.48
2023-02-06T22:09:12.651Z,17.50
2023-02-06T22:11:40.277Z,20.02
2023-02-06T22:14:17.039Z,21.60
2023-02-06T22:16:46.838Z,17.95
2023-02-06T22:19:16.107Z,19.33
2023-02-06T22:21:43.791Z,20.20
2023-02-06T22:24:12.173Z,17.93
2023-02-06T22:26:39.678Z,18.70
2023-02-06T22:29:11.561Z,20.67
2023-02-06T22:31:43.108Z,18.92
2023-02-06T22:34:19.959Z,19.60
2023-02-06T22:36:51.133Z,17.55
2023-02-06T22:39:19.821Z,20.50
2023-02-06T22:44:17.577Z,19.00
2023-02-06T22:46:49.945Z,18.98
2023-02-06T22:49:19.268Z,19.15
2023-02-06T22:51:47.047Z,18.42
2023-02-06T22:54:14.871Z,16.30
2023-02-06T22:56:43.568Z,16.07
2023-02-06T23:02:04.400Z,15.18
2023-02-06T23:04:36.254Z,16.55
2023-02-06T23:07:03.993Z,18.17
2023-02-06T23:09:37.098Z,18.13
2023-02-06T23:12:05.734Z,17.55
2023-02-06T23:17:03.958Z,17.15
2023-02-06T23:19:31.907Z,18.55
2023-02-06T23:21:59.312Z,19.45
2023-02-06T23:24:26.797Z,16.88
2023-02-06T23:26:54.569Z,19.13
2023-02-06T23:29:23.907Z,19.52
2023-02-06T23:31:51.702Z,20.58
2023-02-06T23:34:20.595Z,23.65
2023-02-06T23:36:48.017Z,18.85
2023-02-06T23:39:15.871Z,18.15
2023-02-06T23:41:43.195Z,18.85
2023-02-06T23:44:11.024Z,18.35
2023-02-06T23:46:40.163Z,18.73
2023-02-06T23:49:07.990Z,16.05
2023-02-06T23:51:37.903Z,20.58
2023-02-06T23:54:08.046Z,19.40
2023-02-06T23:56:36.379Z,21.52
2023-02-06T23:59:05.547Z,21.25
